Time;durP1;ratioP1;P1;durP2;ratioP2;P2;SDS_P1;SDS_P2;PMS_P1;PMS_P2;Temp;Humidity;BMP_temperature;BMP_pressure;BME280_temperature;BME280_humidity;BME280_pressure;Samples;Min_cycle;Max_cycle;Signal;HPM_P1;HPM_P2
2022/10/05 00:00:39;;;;;;;;;19.80;19.80;;;;;18.33;63.38;101389.28;2093854;28;46327;-65
2022/10/05 00:01:40;;;;;;;;;24.20;22.40;;;;;18.33;63.24;101393.78;2094183;28;46040;-67
2022/10/05 00:02:40;;;;;;;;;21.25;19.75;;;;;18.31;63.70;101393.88;2095319;28;46615;-64
2022/10/05 00:03:41;;;;;;;;;17.50;17.50;;;;;18.30;63.59;101381.38;2093817;28;45188;-65
2022/10/05 00:04:41;;;;;;;;;20.25;20.00;;;;;18.29;63.47;101393.03;2088406;28;47084;-65
2022/10/05 00:05:44;;;;;;;;;20.25;19.25;;;;;18.27;63.79;101389.53;2091340;28;46891;-65
2022/10/05 00:06:54;;;;;;;;;22.80;22.00;;;;;18.27;63.63;101386.84;2096148;28;46799;-64
2022/10/05 00:08:00;;;;;;;;;19.20;19.20;;;;;18.27;63.84;101388.66;2093258;28;45518;-65
2022/10/05 00:09:04;;;;;;;;;21.20;19.00;;;;;18.26;63.68;101386.91;2087874;28;46586;-66
2022/10/05 00:10:13;;;;;;;;;19.20;17.40;;;;;18.24;63.80;101382.50;2093822;28;46874;-65
2022/10/05 00:11:15;;;;;;;;;19.40;19.00;;;;;18.24;63.70;101387.00;2088447;28;46044;-65
2022/10/05 00:12:18;;;;;;;;;18.60;18.40;;;;;18.22;63.65;101383.50;2088609;28;46202;-64
2022/10/05 00:13:22;;;;;;;;;18.80;17.00;;;;;18.20;63.72;101380.88;2095193;28;46419;-65
2022/10/05 00:14:29;;;;;;;;;18.20;18.00;;;;;18.17;63.72;101380.16;2092659;28;46697;-65
2022/10/05 00:15:30;;;;;;;;;18.25;17.00;;;;;18.16;64.07;101383.75;2090605;28;46330;-66
2022/10/05 00:16:30;;;;;;;;;20.25;17.00;;;;;18.16;63.89;101391.81;2093225;28;46290;-65
2022/10/05 00:17:30;;;;;;;;;19.33;19.00;;;;;18.15;63.83;101385.56;2093595;28;46376;-66
2022/10/05 00:18:31;;;;;;;;;21.00;20.25;;;;;18.14;63.92;101381.13;2094862;28;45235;-66
2022/10/05 00:19:37;;;;;;;;;19.00;16.75;;;;;18.14;64.17;101380.25;2093449;28;46747;-64
2022/10/05 00:20:40;;;;;;;;;17.25;17.00;;;;;18.11;63.87;101381.25;2092938;28;46388;-64
2022/10/05 00:21:40;;;;;;;;;18.25;18.25;;;;;18.11;63.96;101380.41;2091005;28;46953;-64
2022/10/05 00:22:41;;;;;;;;;13.67;13.67;;;;;18.10;64.09;101373.28;2091713;28;46240;-64
2022/10/05 00:23:41;;;;;;;;;14.25;12.50;;;;;18.10;64.12;101378.66;2097266;28;46130;-64
2022/10/05 00:24:43;;;;;;;;;17.00;17.00;;;;;18.09;64.03;101377.78;2086311;28;47262;-66
2022/10/05 00:25:45;;;;;;;;;17.20;16.60;;;;;18.07;64.03;101374.28;2085786;28;47150;-67
2022/10/05 00:26:45;;;;;;;;;17.80;16.80;;;;;18.07;64.09;101374.28;2094657;28;46678;-65
2022/10/05 00:27:52;;;;;;;;;18.25;17.25;;;;;18.06;64.12;101375.22;2088289;28;46433;-65
2022/10/05 00:28:54;;;;;;;;;16.00;16.00;;;;;18.05;64.00;101367.25;2087198;28;46358;-66
2022/10/05 00:29:58;;;;;;;;;14.00;13.25;;;;;18.06;63.95;101367.16;2093250;28;46640;-66
2022/10/05 00:30:59;;;;;;;;;17.80;17.60;;;;;18.04;64.18;101369.06;2095388;28;46801;-65
2022/10/05 00:32:00;;;;;;;;;16.00;16.00;;;;;18.04;64.11;101368.16;2093860;28;45859;-64
2022/10/05 00:33:00;;;;;;;;;16.00;16.00;;;;;18.03;64.02;101359.22;2087641;28;46338;-65
2022/10/05 00:34:00;;;;;;;;;17.00;16.00;;;;;18.03;64.09;101363.72;2093220;28;46634;-64
2022/10/05 00:35:01;;;;;;;;;16.75;16.75;;;;;18.02;63.84;101365.53;2093786;28;45947;-64
2022/10/05 00:36:01;;;;;;;;;18.00;18.00;;;;;18.02;64.04;101364.66;2087914;28;46885;-66
2022/10/05 00:37:03;;;;;;;;;19.25;16.50;;;;;18.01;64.22;101363.78;2087782;28;46239;-65
2022/10/05 00:38:03;;;;;;;;;16.40;16.40;;;;;18.00;63.97;101364.72;2093756;28;46729;-65
2022/10/05 00:39:04;;;;;;;;;16.50;16.50;;;;;18.00;64.15;101361.16;2093828;28;45066;-65
2022/10/05 00:40:22;;;;;;;;;15.33;15.00;;;;;17.98;64.12;101361.25;2088379;28;46813;-65
2022/10/05 00:41:55;;;;;;;;;12.20;11.20;;;;;17.98;64.20;101371.09;2088333;28;46433;-65
2022/10/05 00:43:08;;;;;;;;;17.20;17.20;;;;;17.97;64.06;101356.81;2084009;28;45964;-64
2022/10/05 00:44:20;;;;;;;;;16.20;16.20;;;;;17.98;64.05;101363.06;2094393;28;46725;-67
2022/10/05 00:45:30;;;;;;;;;16.00;16.00;;;;;17.97;64.13;101364.88;2092292;28;46209;-65
2022/10/05 00:46:52;;;;;;;;;17.40;17.00;;;;;17.97;64.03;101362.19;2093200;28;46801;-65
2022/10/05 00:48:27;;;;;;;;;17.20;15.80;;;;;17.96;64.11;101352.38;2095286;28;45071;-66
2022/10/05 00:49:43;;;;;;;;;14.80;13.60;;;;;17.94;63.90;101354.25;2093977;28;46918;-65
2022/10/05 00:50:46;;;;;;;;;16.00;15.60;;;;;17.93;63.91;101355.19;2095449;28;46130;-66
2022/10/05 00:52:12;;;;;;;;;15.20;15.20;;;;;17.93;64.17;101360.56;2093495;28;47004;-64
2022/10/05 00:53:41;;;;;;;;;13.75;13.75;;;;;17.91;64.15;101360.63;2084620;28;46660;-67
2022/10/05 00:54:48;;;;;;;;;14.80;13.20;;;;;17.90;64.16;101356.19;2090023;28;46626;-66
2022/10/05 00:56:13;;;;;;;;;11.25;11.25;;;;;17.91;64.19;101357.06;2091602;28;46740;-65
2022/10/05 00:57:40;;;;;;;;;12.00;12.00;;;;;17.90;63.96;101358.00;2091602;28;45866;-65
2022/10/05 00:59:13;;;;;;;;;9.50;9.50;;;;;17.89;64.04;101358.94;2095915;28;47108;-65
2022/10/05 01:00:18;;;;;;;;;14.75;13.00;;;;;17.87;64.19;101358.13;2044547;28;46704;-63
2022/10/05 01:01:30;;;;;;;;;10.75;10.75;;;;;17.84;64.09;101353.75;2045175;28;46148;-65
2022/10/05 01:02:50;;;;;;;;;12.40;11.40;;;;;17.84;64.13;101352.91;2042898;28;47029;-66
2022/10/05 01:04:05;;;;;;;;;12.50;11.50;;;;;17.83;64.14;101357.38;2044678;28;47024;-65
2022/10/05 01:05:23;;;;;;;;;13.25;11.25;;;;;17.83;64.19;101353.84;2037975;28;46892;-65
2022/10/05 01:06:39;;;;;;;;;14.00;11.75;;;;;17.83;64.15;101353.84;2041738;28;46408;-65
2022/10/05 01:08:04;;;;;;;;;11.25;11.25;;;;;17.81;64.26;101356.59;2047261;28;46401;-65
2022/10/05 01:09:12;;;;;;;;;11.50;10.50;;;;;17.81;64.20;101355.72;2046164;28;46516;-64
2022/10/05 01:10:31;;;;;;;;;12.75;12.25;;;;;17.80;64.23;101360.22;2045110;28;45656;-65
2022/10/05 01:11:53;;;;;;;;;13.25;11.00;;;;;17.81;64.26;101358.41;2045858;28;46366;-64
2022/10/05 01:13:08;;;;;;;;;10.50;10.50;;;;;17.82;64.24;101355.66;2045613;28;45724;-65
2022/10/05 01:14:23;;;;;;;;;10.00;10.00;;;;;17.83;64.72;101360.06;2044644;28;46743;-65
2022/10/05 01:15:32;;;;;;;;;12.00;11.75;;;;;17.83;64.26;101362.75;2047229;28;45245;-63
2022/10/05 01:16:54;;;;;;;;;10.00;9.75;;;;;17.84;64.02;101359.13;2045144;28;47164;-65
2022/10/05 01:18:18;;;;;;;;;10.25;10.25;;;;;17.84;64.21;101360.94;2044618;28;46484;-66
2022/10/05 01:19:38;;;;;;;;;10.75;10.75;;;;;17.83;63.95;101362.75;2044936;28;46601;-65
2022/10/05 01:21:10;;;;;;;;;13.00;12.00;;;;;17.81;63.81;101364.63;2045338;28;47324;-64
2022/10/05 01:22:28;;;;;;;;;12.50;11.50;;;;;17.78;63.87;101359.38;2027129;29;46180;-66
2022/10/05 01:23:50;;;;;;;;;13.00;13.00;;;;;17.77;63.82;101364.81;2029073;28;46708;-64
2022/10/05 01:25:14;;;;;;;;;14.40;13.40;;;;;17.76;64.03;101363.94;2029745;28;46529;-65
2022/10/05 01:26:35;;;;;;;;;10.50;9.50;;;;;17.75;64.18;101364.88;2028637;29;46822;-65
2022/10/05 01:27:38;;;;;;;;;9.00;9.00;;;;;17.74;63.88;101359.56;2028193;28;46529;-64
2022/10/05 01:29:17;;;;;;;;;11.25;10.25;;;;;17.74;64.08;101360.44;2030245;28;46096;-65
2022/10/05 01:30:20;;;;;;;;;13.00;12.00;;;;;17.75;63.97;101350.56;2030264;29;45886;-64
2022/10/05 01:31:27;;;;;;;;;11.00;11.00;;;;;17.74;64.27;101355.06;2029841;28;46393;-64
2022/10/05 01:32:41;;;;;;;;;11.00;11.00;;;;;17.76;64.02;101360.38;2031545;28;46479;-65
2022/10/05 01:33:49;;;;;;;;;9.50;9.25;;;;;17.76;64.19;101361.25;2029954;28;46447;-64
2022/10/05 01:35:24;;;;;;;;;11.75;10.75;;;;;17.75;64.11;101355.94;2030598;28;46924;-65
2022/10/05 01:36:37;;;;;;;;;10.25;10.25;;;;;17.77;64.10;101354.94;2018545;29;46778;-65
2022/10/05 01:37:58;;;;;;;;;9.60;9.60;;;;;17.77;63.93;101352.25;2040745;28;49006;-65
2022/10/05 01:39:43;;;;;;;;;9.00;9.00;;;;;17.80;64.00;101348.59;2055247;28;46584;-65
2022/10/05 01:41:01;;;;;;;;;10.25;10.25;;;;;17.80;64.10;101349.47;2029553;29;46474;-66
2022/10/05 01:42:34;;;;;;;;;11.75;10.50;;;;;17.81;63.85;101344.97;2021626;29;46467;-65
2022/10/05 01:44:01;;;;;;;;;9.80;8.20;;;;;17.81;64.16;101344.97;2021846;29;46482;-68
2022/10/05 01:45:02;;;;;;;;;8.75;8.75;;;;;17.81;63.85;101343.16;2019703;29;46912;-65
2022/10/05 01:46:41;;;;;;;;;10.67;9.67;;;;;17.82;63.54;101347.59;2017301;29;46987;-66
2022/10/05 01:47:46;;;;;;;;;10.50;10.50;;;;;17.80;63.55;101344.09;2024782;29;47140;-65
2022/10/05 01:49:03;;;;;;;;;8.50;8.50;;;;;17.79;63.98;101334.31;2023436;29;46620;-66
2022/10/05 01:50:11;;;;;;;;;9.75;8.75;;;;;17.80;63.70;101343.22;2019526;29;46698;-64
2022/10/05 01:51:33;;;;;;;;;8.75;8.75;;;;;17.79;63.52;101347.72;2022972;29;46539;-66
2022/10/05 01:52:55;;;;;;;;;9.00;9.00;;;;;17.78;63.63;101334.34;2023657;29;46711;-65
2022/10/05 01:54:09;;;;;;;;;7.50;7.50;;;;;17.79;64.13;101336.13;2018380;29;46938;-65
2022/10/05 01:55:43;;;;;;;;;9.75;9.00;;;;;17.78;63.32;101332.53;2023078;29;46867;-65
2022/10/05 01:57:29;;;;;;;;;9.25;8.00;;;;;17.77;63.44;101333.47;2027143;29;45775;-65
2022/10/05 01:58:35;;;;;;;;;11.00;9.00;;;;;17.79;63.58;101328.06;2014726;29;46926;-66
2022/10/05 02:00:16;;;;;;;;;7.75;7.75;;;;;17.79;63.42;101331.63;2007896;29;47037;-66
2022/10/05 02:01:42;;;;;;;;;6.50;6.50;;;;;17.79;63.36;101334.31;1999026;29;46802;-64
2022/10/05 02:03:07;;;;;;;;;8.00;8.00;;;;;17.80;63.64;101324.44;1999315;29;46797;-66
2022/10/05 02:04:38;;;;;;;;;7.00;7.00;;;;;17.81;63.44;101327.06;2000871;29;45686;-66
2022/10/05 02:05:57;;;;;;;;;10.00;8.50;;;;;17.81;63.09;101326.19;1993108;29;45961;-64
2022/10/05 02:07:02;;;;;;;;;8.50;8.00;;;;;17.80;63.21;101328.00;1991846;29;46057;-66
2022/10/05 02:08:08;;;;;;;;;10.00;10.00;;;;;17.80;62.93;101321.75;1995699;29;46732;-65
2022/10/05 02:09:19;;;;;;;;;9.50;9.50;;;;;17.80;63.25;101319.94;1994023;29;47041;-65
2022/10/05 02:10:35;;;;;;;;;11.00;11.00;;;;;17.81;63.15;101321.69;1989886;29;46682;-64
2022/10/05 02:11:38;;;;;;;;;8.75;8.75;;;;;17.81;63.07;101324.38;1992931;29;46379;-65
2022/10/05 02:12:41;;;;;;;;;9.50;9.50;;;;;17.82;62.82;101319.88;1989562;29;46561;-66
2022/10/05 02:14:07;;;;;;;;;9.00;9.00;;;;;17.81;63.09;101321.69;1992539;29;46674;-65
2022/10/05 02:15:18;;;;;;;;;10.00;8.00;;;;;17.82;62.95;101323.44;2002195;29;46967;-65
2022/10/05 02:16:32;;;;;;;;;10.25;10.25;;;;;17.82;62.92;101322.56;2009726;29;46016;-64
2022/10/05 02:17:41;;;;;;;;;10.25;10.25;;;;;17.82;62.93;101323.44;2007011;29;46882;-67
2022/10/05 02:18:51;;;;;;;;;8.25;8.25;;;;;17.81;62.93;101321.69;2030188;29;46370;-65
2022/10/05 02:20:00;;;;;;;;;8.75;8.75;;;;;17.81;63.17;101313.63;2033445;28;47033;-65
2022/10/05 02:21:02;;;;;;;;;7.75;7.25;;;;;17.80;63.04;101311.00;2030733;29;47163;-65
2022/10/05 02:22:22;;;;;;;;;6.75;6.75;;;;;17.79;62.77;101315.50;2029892;29;45914;-66
2022/10/05 02:23:29;;;;;;;;;7.25;7.00;;;;;17.79;62.82;101312.81;2029457;28;47054;-64
2022/10/05 02:24:37;;;;;;;;;6.75;6.75;;;;;17.78;62.89;101312.84;2029376;29;46465;-64
2022/10/05 02:25:41;;;;;;;;;7.50;7.50;;;;;17.77;62.70;101317.34;2026751;29;46665;-65
2022/10/05 02:26:41;;;;;;;;;5.50;5.50;;;;;17.77;63.01;101308.44;2030366;29;46980;-64
2022/10/05 02:27:47;;;;;;;;;6.00;6.00;;;;;17.76;62.88;101320.09;2032204;28;46750;-64
2022/10/05 02:28:58;;;;;;;;;6.25;5.25;;;;;17.76;62.86;101312.06;2038114;28;46945;-64
2022/10/05 02:30:03;;;;;;;;;7.25;6.75;;;;;17.77;62.93;101313.81;2029177;28;46827;-64
2022/10/05 02:31:09;;;;;;;;;6.50;6.00;;;;;17.76;62.85;101306.69;2032883;28;47626;-65
2022/10/05 02:32:15;;;;;;;;;6.50;5.75;;;;;17.77;62.98;101303.06;2029659;28;46511;-65
2022/10/05 02:33:25;;;;;;;;;6.00;6.00;;;;;17.76;62.80;101299.50;2044770;28;46390;-64
2022/10/05 02:34:29;;;;;;;;;7.75;7.00;;;;;17.77;62.84;101286.94;2046537;28;46920;-64
2022/10/05 02:35:29;;;;;;;;;7.00;7.00;;;;;17.76;62.79;101291.44;2046681;28;46752;-65
2022/10/05 02:36:35;;;;;;;;;7.00;7.00;;;;;17.78;62.85;101294.06;2062000;28;46709;-64
2022/10/05 02:38:13;;;;;;;;;7.75;7.00;;;;;17.77;62.93;101285.13;2071731;28;46996;-65
2022/10/05 02:39:27;;;;;;;;;7.00;5.50;;;;;17.78;62.37;101286.00;2072856;28;48290;-65
2022/10/05 02:40:40;;;;;;;;;6.50;6.50;;;;;17.78;62.76;101286.88;2076943;28;47388;-65
2022/10/05 02:42:03;;;;;;;;;3.25;3.00;;;;;17.77;62.68;101286.94;2074963;28;47348;-64
2022/10/05 02:43:37;;;;;;;;;6.25;6.25;;;;;17.77;62.54;101286.94;2072237;28;46727;-64
2022/10/05 02:44:44;;;;;;;;;5.25;5.25;;;;;17.75;62.72;101284.34;2075301;28;46789;-65
2022/10/05 02:46:32;;;;;;;;;6.25;6.25;;;;;17.75;62.59;101283.47;2080403;28;46423;-65
2022/10/05 02:47:47;;;;;;;;;5.50;5.50;;;;;17.72;62.70;101280.91;2071361;28;45199;-67
2022/10/05 02:48:53;;;;;;;;;7.00;7.00;;;;;17.71;62.56;101279.19;2071326;28;47282;-64
2022/10/05 02:50:07;;;;;;;;;5.75;5.75;;;;;17.70;62.55;101285.47;2071174;28;46324;-65
2022/10/05 02:51:20;;;;;;;;;7.75;7.75;;;;;17.68;62.85;101280.16;2066325;28;46068;-64
2022/10/05 02:52:25;;;;;;;;;6.25;6.25;;;;;17.68;62.68;101285.53;2070273;28;46638;-65
2022/10/05 02:53:35;;;;;;;;;5.50;5.50;;;;;17.67;62.51;101281.09;2071375;28;46127;-65
2022/10/05 02:54:44;;;;;;;;;7.50;6.75;;;;;17.67;62.44;101277.53;2062807;28;45970;-64
2022/10/05 02:55:49;;;;;;;;;4.75;4.75;;;;;17.65;62.68;101273.06;2063854;28;46546;-65
2022/10/05 02:57:03;;;;;;;;;6.75;6.00;;;;;17.65;62.92;101283.81;2070736;28;46130;-64
2022/10/05 02:58:21;;;;;;;;;6.00;5.50;;;;;17.67;62.80;101280.22;2064611;28;46513;-65
2022/10/05 02:59:36;;;;;;;;;5.00;5.00;;;;;17.65;62.74;101281.13;2066622;28;45747;-64
2022/10/05 03:00:47;;;;;;;;;5.50;5.25;;;;;17.63;62.51;101279.44;2070482;28;46752;-63
2022/10/05 03:01:58;;;;;;;;;6.25;6.25;;;;;17.63;62.68;101271.41;2070870;28;46583;-64
2022/10/05 03:03:05;;;;;;;;;6.25;6.25;;;;;17.60;62.63;101277.78;2070098;28;45679;-66
2022/10/05 03:04:23;;;;;;;;;5.25;5.25;;;;;17.60;62.52;101277.78;2071041;28;46564;-64
2022/10/05 03:05:34;;;;;;;;;6.75;6.75;;;;;17.60;62.72;101277.78;2068551;28;47063;-64
2022/10/05 03:06:45;;;;;;;;;7.25;7.25;;;;;17.60;62.69;101277.78;2070768;28;46374;-65
2022/10/05 03:08:01;;;;;;;;;7.75;6.75;;;;;17.59;62.75;101277.84;2064995;28;46555;-64
2022/10/05 03:09:04;;;;;;;;;7.00;7.00;;;;;17.57;62.77;101275.22;2072486;28;46765;-64
2022/10/05 03:10:13;;;;;;;;;8.00;8.00;;;;;17.56;62.89;101276.16;2070952;28;47174;-63
2022/10/05 03:11:21;;;;;;;;;6.75;6.00;;;;;17.57;62.57;101266.31;2069745;28;46172;-66
2022/10/05 03:13:07;;;;;;;;;7.75;7.25;;;;;17.56;62.85;101277.97;2068498;28;46381;-64
2022/10/05 03:14:38;;;;;;;;;7.50;7.50;;;;;17.54;62.60;101277.19;2043194;28;46496;-64
2022/10/05 03:15:52;;;;;;;;;9.25;9.00;;;;;17.54;62.68;101275.38;2040546;28;46709;-65
2022/10/05 03:16:52;;;;;;;;;7.00;7.00;;;;;17.53;62.64;101278.09;2038714;28;48376;-63
2022/10/05 03:18:18;;;;;;;;;6.67;6.33;;;;;17.51;62.75;101277.28;2044953;28;46301;-64
2022/10/05 03:19:42;;;;;;;;;9.00;7.00;;;;;17.50;62.83;101281.78;2039119;28;46413;-65
2022/10/05 03:20:56;;;;;;;;;8.75;8.00;;;;;17.48;62.83;101264.88;2041586;28;46811;-64
2022/10/05 03:22:04;;;;;;;;;9.00;8.00;;;;;17.47;62.89;101272.97;2038494;28;46601;-65
2022/10/05 03:23:15;;;;;;;;;5.75;5.75;;;;;17.46;62.78;101271.25;2039622;28;47128;-64
2022/10/05 03:24:28;;;;;;;;;6.00;6.00;;;;;17.44;62.80;101265.94;2047976;28;46602;-65
2022/10/05 03:25:41;;;;;;;;;8.00;7.50;;;;;17.44;62.96;101267.75;2054652;28;46533;-64
2022/10/05 03:27:00;;;;;;;;;7.00;7.00;;;;;17.41;62.81;101262.53;2054744;28;47109;-64
2022/10/05 03:28:06;;;;;;;;;8.75;7.50;;;;;17.40;62.92;101261.63;2053991;28;46359;-63
2022/10/05 03:29:26;;;;;;;;;9.00;8.00;;;;;17.39;62.98;101265.25;2053931;28;46972;-64
2022/10/05 03:30:37;;;;;;;;;6.75;6.25;;;;;17.38;62.82;101260.81;2054476;28;46734;-62
2022/10/05 03:32:01;;;;;;;;;8.00;8.00;;;;;17.37;62.85;101264.44;2054279;28;46382;-65
2022/10/05 03:33:13;;;;;;;;;9.00;9.00;;;;;17.37;62.68;101261.75;2030791;29;46740;-64
2022/10/05 03:34:26;;;;;;;;;3.00;2.25;;;;;17.34;62.89;101260.06;2036800;28;45694;-62
2022/10/05 03:35:48;;;;;;;;;8.50;8.50;;;;;17.33;62.83;101258.31;2030485;29;46459;-64
2022/10/05 03:36:51;;;;;;;;;4.75;4.75;;;;;17.30;62.79;101263.81;2030436;29;46263;-64
2022/10/05 03:37:58;;;;;;;;;8.00;6.00;;;;;17.30;62.95;101265.63;2030512;29;47032;-65
2022/10/05 03:39:25;;;;;;;;;8.75;8.75;;;;;17.31;63.05;101260.22;2038396;28;46946;-65
2022/10/05 03:40:33;;;;;;;;;7.75;7.75;;;;;17.29;63.17;101256.72;2030849;29;46639;-66
2022/10/05 03:41:42;;;;;;;;;9.50;9.00;;;;;17.28;63.12;101252.28;2031494;28;47019;-65
2022/10/05 03:43:34;;;;;;;;;7.75;7.75;;;;;17.26;62.87;101256.81;2030419;29;47521;-65
2022/10/05 03:44:43;;;;;;;;;10.50;10.25;;;;;17.24;63.18;101256.00;2030251;29;46408;-65
2022/10/05 03:46:09;;;;;;;;;7.75;7.75;;;;;17.21;63.19;101249.91;2031186;29;47031;-64
2022/10/05 03:47:28;;;;;;;;;7.25;7.25;;;;;17.19;63.15;101246.41;2031014;28;46524;-64
2022/10/05 03:48:38;;;;;;;;;7.00;7.00;;;;;17.19;63.23;101254.47;2030487;29;46773;-65
2022/10/05 03:50:09;;;;;;;;;5.50;5.50;;;;;17.17;63.26;101249.16;2030619;29;46767;-65
2022/10/05 03:51:22;;;;;;;;;9.75;9.75;;;;;17.16;63.23;101250.09;2021302;28;45489;-65
2022/10/05 03:52:34;;;;;;;;;10.50;9.50;;;;;17.15;63.19;101247.47;2038167;28;46549;-64
2022/10/05 03:53:40;;;;;;;;;8.50;8.50;;;;;17.13;63.32;101239.47;2038370;28;46925;-64
2022/10/05 03:54:46;;;;;;;;;9.00;8.25;;;;;17.12;63.13;101242.22;2038032;28;46620;-63
2022/10/05 03:56:03;;;;;;;;;8.75;8.75;;;;;17.11;63.40;101246.72;2038418;28;46914;-65
2022/10/05 03:57:15;;;;;;;;;12.75;10.00;;;;;17.10;63.04;101253.03;2038020;28;46787;-64
2022/10/05 03:58:36;;;;;;;;;7.25;7.25;;;;;17.10;63.44;101247.66;2043255;28;46200;-64
2022/10/05 03:59:57;;;;;;;;;8.25;8.00;;;;;17.10;63.49;101244.09;2037853;28;46764;-64
2022/10/05 04:01:04;;;;;;;;;8.25;8.25;;;;;17.09;63.40;101239.69;2038213;28;46727;-64
2022/10/05 04:02:11;;;;;;;;;8.50;8.50;;;;;17.08;63.09;101252.22;2038574;28;46485;-65
2022/10/05 04:03:24;;;;;;;;;8.50;8.50;;;;;17.07;63.02;101247.78;2037950;28;47264;-64
2022/10/05 04:04:39;;;;;;;;;8.00;8.00;;;;;17.06;63.09;101246.03;2038573;28;46358;-65
2022/10/05 04:05:54;;;;;;;;;10.25;10.25;;;;;17.04;62.97;101246.09;2040218;28;46695;-65
2022/10/05 04:06:56;;;;;;;;;8.25;8.00;;;;;17.03;63.32;101248.84;2030897;29;46668;-64
2022/10/05 04:08:06;;;;;;;;;5.50;5.50;;;;;17.03;63.59;101248.84;2038195;28;46371;-65
2022/10/05 04:09:15;;;;;;;;;9.25;9.00;;;;;17.01;63.49;101250.69;2038170;28;46881;-65
2022/10/05 04:10:21;;;;;;;;;11.25;10.25;;;;;17.01;63.28;101253.38;2038547;28;45833;-64
2022/10/05 04:11:28;;;;;;;;;7.75;7.75;;;;;17.01;63.19;101254.25;2062643;28;46302;-64
2022/10/05 04:12:37;;;;;;;;;9.50;9.00;;;;;17.02;63.29;101255.13;2062355;28;46628;-64
2022/10/05 04:13:46;;;;;;;;;9.00;9.00;;;;;17.02;63.58;101257.81;2067211;28;46423;-64
2022/10/05 04:14:53;;;;;;;;;9.25;9.25;;;;;17.01;63.32;101253.38;2059918;28;46982;-65
2022/10/05 04:16:18;;;;;;;;;8.75;8.75;;;;;17.01;63.08;101248.00;2061871;28;46445;-64
2022/10/05 04:17:33;;;;;;;;;8.75;8.75;;;;;17.01;63.46;101256.94;2044256;28;46897;-64
2022/10/05 04:18:42;;;;;;;;;8.50;7.75;;;;;17.01;63.65;101250.69;2048213;28;46940;-65
2022/10/05 04:19:56;;;;;;;;;8.75;8.75;;;;;17.02;63.22;101247.97;2061265;28;46985;-64
2022/10/05 04:21:16;;;;;;;;;9.00;9.00;;;;;17.03;63.16;101254.22;2062536;28;46626;-65
2022/10/05 04:22:21;;;;;;;;;10.25;10.25;;;;;17.03;63.69;101248.84;2061794;28;46318;-64
2022/10/05 04:23:34;;;;;;;;;7.50;7.25;;;;;17.02;63.55;101250.66;2065186;28;46200;-66
2022/10/05 04:24:40;;;;;;;;;6.25;6.00;;;;;17.02;63.43;101250.66;2061715;28;46741;-65
2022/10/05 04:25:47;;;;;;;;;9.00;8.75;;;;;17.02;63.36;101253.34;2062642;28;47078;-65
2022/10/05 04:26:54;;;;;;;;;7.25;7.25;;;;;17.03;63.23;101254.22;2069107;28;46841;-65
2022/10/05 04:28:13;;;;;;;;;7.00;7.00;;;;;17.03;63.45;101244.38;2062364;28;46167;-66
2022/10/05 04:29:35;;;;;;;;;10.25;9.75;;;;;17.03;63.26;101248.84;2074914;28;47055;-66
2022/10/05 04:30:41;;;;;;;;;8.50;8.50;;;;;17.01;63.40;101240.84;2077153;28;46832;-65
2022/10/05 04:31:47;;;;;;;;;7.50;7.50;;;;;16.99;63.07;101240.03;2092979;28;45101;-64
2022/10/05 04:32:51;;;;;;;;;10.50;10.00;;;;;16.98;63.59;101240.97;2093451;28;47092;-64
2022/10/05 04:34:03;;;;;;;;;8.50;8.50;;;;;16.98;63.42;101245.47;2088374;28;46728;-64
2022/10/05 04:35:19;;;;;;;;;7.00;7.00;;;;;16.96;63.37;101237.50;2078996;28;46622;-62
2022/10/05 04:36:36;;;;;;;;;7.00;7.00;;;;;16.95;63.42;101243.78;2084598;28;46283;-62
2022/10/05 04:37:48;;;;;;;;;6.50;6.50;;;;;16.94;63.46;101243.84;2096421;28;46149;-62
2022/10/05 04:39:08;;;;;;;;;8.00;7.00;;;;;16.91;63.22;101239.50;2094403;28;46206;-63
2022/10/05 04:40:38;;;;;;;;;7.50;7.50;;;;;16.89;63.54;101244.00;2094367;28;45905;-60
2022/10/05 04:42:08;;;;;;;;;13.75;12.50;;;;;16.86;63.35;101243.28;2089201;28;46566;-61
2022/10/05 04:43:35;;;;;;;;;8.00;8.00;;;;;16.82;63.35;101244.34;2095938;28;46501;-60
2022/10/05 04:44:52;;;;;;;;;9.00;8.75;;;;;16.81;63.45;101240.78;2095868;28;47125;-60
2022/10/05 04:46:05;;;;;;;;;9.75;9.75;;;;;16.78;63.60;101230.19;2099205;28;47134;-59
2022/10/05 04:47:16;;;;;;;;;10.00;9.50;;;;;16.77;63.87;101244.53;2098812;28;45858;-59
2022/10/05 04:48:44;;;;;;;;;8.25;8.25;;;;;16.78;63.76;101246.25;2097625;28;46585;-60
2022/10/05 04:49:54;;;;;;;;;6.25;6.00;;;;;16.78;63.93;101243.59;2096572;28;47028;-60
2022/10/05 04:51:04;;;;;;;;;7.00;7.00;;;;;16.77;63.91;101233.81;2096391;28;46522;-59
2022/10/05 04:52:23;;;;;;;;;7.75;7.75;;;;;16.76;63.67;101232.03;2092823;28;46796;-60
2022/10/05 04:53:34;;;;;;;;;7.25;7.25;;;;;16.74;63.74;101237.44;2095713;28;46537;-65
2022/10/05 04:54:58;;;;;;;;;7.75;7.75;;;;;16.74;64.00;101237.44;2103719;28;46881;-64
2022/10/05 04:56:16;;;;;;;;;8.00;7.75;;;;;16.74;63.79;101236.56;2062360;28;46203;-64
2022/10/05 04:58:03;;;;;;;;;7.75;7.75;;;;;16.73;64.01;101235.69;2063233;28;47047;-63
2022/10/05 04:59:34;;;;;;;;;7.50;6.75;;;;;16.73;63.95;101233.03;2056077;28;47141;-65
2022/10/05 05:00:59;;;;;;;;;7.00;7.00;;;;;16.74;63.69;101228.53;2051084;28;46462;-64
2022/10/05 05:02:21;;;;;;;;;6.75;6.75;;;;;16.73;64.08;101227.66;2054242;28;46581;-63
2022/10/05 05:03:49;;;;;;;;;6.25;6.25;;;;;16.72;63.85;101228.59;2053172;28;46833;-65
2022/10/05 05:05:04;;;;;;;;;9.50;8.50;;;;;16.73;63.86;101224.09;2046326;28;46788;-65
2022/10/05 05:06:14;;;;;;;;;9.00;8.00;;;;;16.73;64.08;101233.03;2054425;28;46319;-64
2022/10/05 05:07:23;;;;;;;;;8.33;8.00;;;;;16.74;64.14;101228.53;2054107;28;46381;-64
2022/10/05 05:08:39;;;;;;;;;7.00;7.00;;;;;16.73;64.02;101224.97;2059959;28;46863;-65
2022/10/05 05:10:09;;;;;;;;;7.25;7.25;;;;;16.72;64.21;101223.25;2053829;28;46952;-66
2022/10/05 05:11:36;;;;;;;;;6.00;6.00;;;;;16.70;64.18;101214.38;2054735;28;46540;-64
2022/10/05 05:13:22;;;;;;;;;7.50;7.50;;;;;16.70;63.85;101217.06;2050468;28;46627;-65
2022/10/05 05:14:43;;;;;;;;;8.50;7.50;;;;;16.70;63.82;101210.84;2050782;28;46496;-65
2022/10/05 05:16:03;;;;;;;;;7.50;7.00;;;;;16.69;63.92;101214.44;2054259;28;45668;-65
2022/10/05 05:17:31;;;;;;;;;6.50;5.75;;;;;16.68;63.81;101215.38;2053256;28;46552;-64
2022/10/05 05:18:40;;;;;;;;;8.75;8.75;;;;;16.67;64.16;101208.25;2050989;28;46101;-66
2022/10/05 05:19:54;;;;;;;;;8.25;8.00;;;;;16.65;64.08;101213.69;2054937;28;46305;-64
2022/10/05 05:21:10;;;;;;;;;6.75;6.75;;;;;16.63;63.99;101220.88;2056156;28;46775;-62
2022/10/05 05:22:28;;;;;;;;;8.50;8.50;;;;;16.62;64.31;101213.78;2060903;28;46753;-64
2022/10/05 05:23:39;;;;;;;;;6.75;6.75;;;;;16.63;64.09;101211.97;2054635;28;46429;-64
2022/10/05 05:24:45;;;;;;;;;9.50;9.00;;;;;16.65;64.17;101211.00;2055380;28;46330;-65
2022/10/05 05:25:51;;;;;;;;;7.25;7.25;;;;;16.64;64.34;101217.28;2060421;28;46899;-64
2022/10/05 05:27:25;;;;;;;;;8.75;8.00;;;;;16.64;64.09;101211.03;2053578;28;47393;-65
2022/10/05 05:28:57;;;;;;;;;8.50;8.50;;;;;16.62;63.93;101208.41;2058767;28;46916;-63
2022/10/05 05:30:07;;;;;;;;;7.00;7.00;;;;;16.62;64.01;101212.91;2060034;28;46886;-64
2022/10/05 05:31:39;;;;;;;;;10.25;10.25;;;;;16.59;64.28;101213.91;2060553;28;45507;-64
2022/10/05 05:33:01;;;;;;;;;9.00;8.75;;;;;16.59;64.08;101213.91;2058841;28;46679;-63
2022/10/05 05:34:38;;;;;;;;;8.50;8.50;;;;;16.59;64.27;101204.97;2059628;28;46547;-63
2022/10/05 05:36:01;;;;;;;;;7.00;7.00;;;;;16.59;64.39;101210.34;2062714;28;46399;-61
2022/10/05 05:37:27;;;;;;;;;8.00;8.00;;;;;16.58;64.38;101209.47;2091889;28;46812;-63
2022/10/05 05:38:35;;;;;;;;;7.75;7.75;;;;;16.57;63.73;101202.38;2090909;28;46863;-64
2022/10/05 05:39:58;;;;;;;;;8.25;8.25;;;;;16.55;64.00;101203.38;2103212;28;46515;-64
2022/10/05 05:41:09;;;;;;;;;7.00;7.00;;;;;16.57;63.87;101201.50;2095266;28;46975;-64
2022/10/05 05:42:28;;;;;;;;;9.00;8.00;;;;;16.55;63.81;101200.69;2092713;28;46175;-63
2022/10/05 05:43:42;;;;;;;;;9.25;9.25;;;;;16.54;64.07;101201.63;2092682;28;46516;-64